Time;durP1;ratioP1;P1;durP2;ratioP2;P2;SDS_P1;SDS_P2;PMS_P1;PMS_P2;Temp;Humidity;BMP_temperature;BMP_pressure;BME280_temperature;BME280_humidity;BME280_pressure;Samples;Min_cycle;Max_cycle;Signal;HPM_P1;HPM_P2
2023/09/13 00:00:10;;;;;;;5.57;2.53;;;17.80;88.90;;;;;;5029923;28;20431;-53
2023/09/13 00:02:37;;;;;;;9.10;3.20;;;17.80;88.60;;;;;;5031818;28;20052;-52
2023/09/13 00:05:04;;;;;;;11.52;3.47;;;17.80;88.60;;;;;;5030474;28;20530;-55
2023/09/13 00:07:31;;;;;;;9.63;2.92;;;17.80;88.60;;;;;;5030089;28;20025;-54
2023/09/13 00:09:59;;;;;;;9.07;2.65;;;17.80;88.70;;;;;;5030369;28;20041;-56
2023/09/13 00:12:26;;;;;;;8.93;3.90;;;17.80;88.50;;;;;;5029464;28;20052;-53
2023/09/13 00:14:52;;;;;;;11.00;2.90;;;17.80;88.30;;;;;;5050024;28;20118;-55
2023/09/13 00:17:21;;;;;;;11.13;3.05;;;17.80;88.10;;;;;;5047351;28;20072;-52
2023/09/13 00:19:50;;;;;;;9.30;2.90;;;17.80;88.10;;;;;;5033696;28;20017;-54
2023/09/13 00:22:17;;;;;;;9.88;3.85;;;17.70;87.80;;;;;;5032547;28;20021;-51
2023/09/13 00:24:45;;;;;;;8.00;4.40;;;17.70;87.80;;;;;;5033620;28;20369;-56
2023/09/13 00:27:11;;;;;;;8.63;2.40;;;17.70;87.80;;;;;;5033448;28;20090;-54
2023/09/13 00:29:39;;;;;;;12.15;3.20;;;17.80;87.70;;;;;;5033550;28;20084;-55
2023/09/13 00:32:06;;;;;;;12.68;2.78;;;17.80;87.90;;;;;;5033688;28;20048;-54
2023/09/13 00:34:33;;;;;;;11.13;2.97;;;17.70;87.60;;;;;;5033310;28;20032;-54
2023/09/13 00:37:01;;;;;;;10.13;2.70;;;17.70;87.80;;;;;;5016204;28;20025;-56
2023/09/13 00:39:27;;;;;;;11.73;2.92;;;17.80;87.50;;;;;;5033406;28;20461;-54
2023/09/13 00:41:57;;;;;;;8.07;3.13;;;17.70;87.50;;;;;;5033381;28;20038;-56
2023/09/13 00:44:27;;;;;;;;;;;17.80;87.70;;;;;;5033653;28;20049;-51
2023/09/13 00:46:54;;;;;;;9.18;2.88;;;17.70;87.60;;;;;;5037395;28;20003;-54
2023/09/13 00:49:21;;;;;;;10.95;3.65;;;17.70;87.60;;;;;;5053127;28;20338;-55
2023/09/13 00:51:49;;;;;;;10.75;2.75;;;17.70;87.30;;;;;;5047035;28;20116;-52
2023/09/13 00:54:16;;;;;;;6.05;2.42;;;17.70;87.20;;;;;;5032818;28;20458;-54
2023/09/13 00:56:44;;;;;;;10.02;3.63;;;17.70;87.10;;;;;;5032912;28;20072;-56
2023/09/13 00:59:11;;;;;;;6.00;2.33;;;17.70;87.20;;;;;;5032882;28;20419;-56
2023/09/13 01:01:37;;;;;;;11.50;2.92;;;17.70;87.40;;;;;;5015781;28;20033;-55
2023/09/13 01:04:04;;;;;;;7.32;2.60;;;17.60;86.80;;;;;;5032944;28;20112;-52
2023/09/13 01:06:30;;;;;;;8.25;2.30;;;17.60;87.20;;;;;;5033053;28;20408;-55
2023/09/13 01:08:57;;;;;;;10.48;3.00;;;17.60;87.10;;;;;;5032872;28;20029;-56
2023/09/13 01:11:25;;;;;;;6.85;2.35;;;17.60;87.20;;;;;;5032903;28;20026;-54
2023/09/13 01:13:52;;;;;;;7.95;2.55;;;17.60;87.10;;;;;;5032392;28;20040;-55
2023/09/13 01:17:07;;;;;;;10.35;2.83;;;17.60;87.10;;;;;;5033138;28;20096;-56
2023/09/13 01:20:07;;;;;;;7.25;2.35;;;17.60;87.10;;;;;;5005500;28;20049;-55
2023/09/13 01:22:38;;;;;;;12.93;2.95;;;17.60;87.40;;;;;;5043796;28;20080;-51
2023/09/13 01:25:15;;;;;;;12.55;3.55;;;17.60;87.40;;;;;;5052569;28;20108;-55
2023/09/13 01:28:03;;;;;;;11.40;3.08;;;17.60;87.20;;;;;;5049627;28;20118;-55
2023/09/13 01:30:31;;;;;;;7.65;2.88;;;17.60;87.00;;;;;;5030850;28;20576;-51
2023/09/13 01:32:57;;;;;;;7.95;2.70;;;17.60;87.00;;;;;;5031810;28;20044;-56
2023/09/13 01:35:23;;;;;;;8.57;2.88;;;17.50;87.10;;;;;;5031968;28;20033;-56
2023/09/13 01:37:49;;;;;;;10.80;3.90;;;17.50;86.80;;;;;;5031966;28;20040;-56
2023/09/13 01:40:16;;;;;;;9.23;3.20;;;17.50;86.90;;;;;;5032535;28;20021;-55
2023/09/13 01:42:45;;;;;;;11.13;3.30;;;17.50;87.10;;;;;;5032212;28;20435;-55
2023/09/13 01:45:14;;;;;;;7.35;2.78;;;17.50;87.00;;;;;;5032359;28;20563;-54
2023/09/13 01:47:44;;;;;;;18.50;4.78;;;17.50;87.10;;;;;;5032084;28;20144;-51
2023/09/13 01:50:12;;;;;;;9.68;3.15;;;17.50;86.90;;;;;;5032054;28;20045;-56
2023/09/13 01:52:41;;;;;;;22.23;3.30;;;17.50;87.30;;;;;;5025732;28;20069;-54
2023/09/13 01:55:12;;;;;;;9.60;3.38;;;17.40;86.90;;;;;;5012214;28;20123;-51
2023/09/13 01:57:39;;;;;;;8.68;2.67;;;17.50;86.80;;;;;;5027136;28;20033;-54
2023/09/13 02:00:06;;;;;;;9.27;2.80;;;17.50;86.90;;;;;;5031748;28;20013;-54
2023/09/13 02:02:33;;;;;;;11.15;3.08;;;17.50;86.90;;;;;;5031897;28;20025;-55
2023/09/13 02:05:00;;;;;;;11.73;2.97;;;17.40;86.70;;;;;;5029934;28;20021;-56
2023/09/13 02:07:27;;;;;;;9.40;3.08;;;17.40;87.00;;;;;;5011908;28;20022;-56
2023/09/13 02:09:54;;;;;;;11.73;3.00;;;17.40;87.10;;;;;;5012077;28;20030;-56
2023/09/13 02:12:20;;;;;;;12.80;3.85;;;17.40;86.70;;;;;;5012067;28;20049;-56
2023/09/13 02:14:46;;;;;;;11.88;3.92;;;17.40;86.40;;;;;;5011625;28;20115;-55
2023/09/13 02:17:16;;;;;;;12.57;3.97;;;17.40;86.70;;;;;;4994287;28;20034;-55
2023/09/13 02:19:42;;;;;;;14.25;3.85;;;17.40;86.20;;;;;;5011715;28;20100;-54
2023/09/13 02:22:08;;;;;;;12.82;3.25;;;17.40;86.30;;;;;;5012368;28;20029;-53
2023/09/13 02:24:37;;;;;;;9.02;3.65;;;17.40;86.40;;;;;;5031486;28;20033;-56
2023/09/13 02:27:04;;;;;;;13.40;3.67;;;17.30;85.80;;;;;;5031492;28;20037;-55
2023/09/13 02:29:33;;;;;;;11.77;3.67;;;17.30;85.60;;;;;;5013441;28;20037;-56
2023/09/13 02:32:00;;;;;;;9.13;3.05;;;17.20;85.30;;;;;;5011736;28;20069;-54
2023/09/13 02:34:27;;;;;;;9.75;3.42;;;17.20;85.50;;;;;;5011438;28;20617;-55
2023/09/13 02:36:56;;;;;;;10.85;3.75;;;17.20;85.40;;;;;;4993789;28;20038;-56
2023/09/13 02:39:34;;;;;;;9.25;2.70;;;17.20;85.50;;;;;;5011125;28;20032;-56
2023/09/13 02:42:05;;;;;;;8.68;2.88;;;17.20;85.10;;;;;;5011354;28;20502;-54
2023/09/13 02:44:32;;;;;;;9.63;3.05;;;17.20;84.80;;;;;;5011119;28;20037;-53
2023/09/13 02:47:00;;;;;;;12.25;2.90;;;17.20;85.20;;;;;;4993878;28;20130;-54
2023/09/13 02:49:27;;;;;;;9.23;3.33;;;17.20;85.00;;;;;;4993628;28;20068;-56
2023/09/13 02:51:55;;;;;;;13.35;3.25;;;17.10;84.60;;;;;;5011734;28;20048;-56
2023/09/13 02:54:21;;;;;;;12.93;3.33;;;17.10;84.30;;;;;;5050851;28;20079;-55
2023/09/13 02:56:49;;;;;;;6.40;2.17;;;17.10;83.60;;;;;;5049040;28;20024;-56
2023/09/13 02:59:17;;;;;;;9.25;3.20;;;17.00;83.90;;;;;;5030591;28;20025;-52
2023/09/13 03:01:49;;;;;;;12.20;2.78;;;17.10;83.90;;;;;;5030755;28;20033;-53
2023/09/13 03:04:16;;;;;;;7.97;2.95;;;17.00;83.30;;;;;;5030655;28;20143;-55
2023/09/13 03:06:42;;;;;;;9.68;3.30;;;17.00;83.20;;;;;;5030063;28;20061;-54
2023/09/13 03:09:08;;;;;;;14.25;3.85;;;17.00;83.70;;;;;;5030183;28;20367;-55
2023/09/13 03:11:38;;;;;;;16.00;4.35;;;17.00;83.60;;;;;;5041373;28;20029;-54
2023/09/13 03:14:09;;;;;;;;;;;17.00;83.10;;;;;;5050685;28;20033;-56
2023/09/13 03:16:34;;;;;;;10.35;2.90;;;16.90;82.60;;;;;;5041527;28;19909;-53
2023/09/13 03:19:03;;;;;;;9.07;2.58;;;16.90;82.20;;;;;;5030564;28;20028;-56
2023/09/13 03:21:30;;;;;;;7.88;3.20;;;16.90;82.40;;;;;;5013122;28;20140;-54
2023/09/13 03:23:57;;;;;;;10.32;2.22;;;16.90;81.80;;;;;;5012725;28;20091;-55
2023/09/13 03:26:25;;;;;;;9.23;2.38;;;16.90;81.90;;;;;;5030190;28;20041;-56
2023/09/13 03:28:54;;;;;;;9.32;3.10;;;16.90;81.70;;;;;;5030311;28;20036;-56
2023/09/13 03:31:22;;;;;;;6.55;2.28;;;16.90;81.30;;;;;;5013022;28;20068;-55
2023/09/13 03:33:52;;;;;;;6.35;2.15;;;16.90;81.20;;;;;;5030091;28;20037;-53
2023/09/13 03:36:18;;;;;;;8.93;2.10;;;16.90;81.10;;;;;;5030450;28;20028;-53
2023/09/13 03:38:47;;;;;;;9.32;2.63;;;16.90;80.80;;;;;;5030376;28;20029;-56
2023/09/13 03:41:18;;;;;;;8.18;2.38;;;16.90;80.10;;;;;;5030591;28;20117;-54
2023/09/13 03:43:47;;;;;;;9.05;2.65;;;16.90;80.30;;;;;;5030585;28;20087;-56
2023/09/13 03:46:14;;;;;;;13.80;2.92;;;16.90;80.20;;;;;;5030515;28;20029;-56
2023/09/13 03:48:40;;;;;;;13.32;3.45;;;16.90;79.70;;;;;;5030446;28;20465;-53
2023/09/13 03:51:08;;;;;;;6.32;1.52;;;16.90;79.30;;;;;;5030626;28;20068;-55
2023/09/13 03:53:36;;;;;;;5.65;2.13;;;16.90;79.60;;;;;;5033193;28;20053;-54
2023/09/13 03:56:02;;;;;;;8.93;1.88;;;16.90;80.20;;;;;;5034207;28;20032;-56
2023/09/13 03:58:29;;;;;;;14.57;2.67;;;16.80;79.80;;;;;;5034508;28;20032;-54
2023/09/13 04:00:58;;;;;;;6.05;1.63;;;16.70;80.50;;;;;;5033929;28;20026;-54
2023/09/13 04:03:27;;;;;;;12.52;2.33;;;16.70;80.00;;;;;;5034396;28;20029;-56
2023/09/13 04:05:54;;;;;;;5.10;1.88;;;16.60;80.60;;;;;;5034074;28;20092;-52
2023/09/13 04:08:20;;;;;;;5.80;1.92;;;16.60;81.30;;;;;;5033972;28;20048;-56
2023/09/13 04:10:47;;;;;;;9.85;2.10;;;16.50;81.20;;;;;;5033879;28;20463;-53
2023/09/13 04:13:15;;;;;;;7.93;2.00;;;16.40;80.60;;;;;;5033483;28;20037;-55
2023/09/13 04:15:44;;;;;;;10.48;2.45;;;16.40;81.30;;;;;;5033993;28;20025;-53
2023/09/13 04:18:12;;;;;;;6.18;1.48;;;16.40;81.30;;;;;;5033845;28;20049;-55
2023/09/13 04:20:39;;;;;;;9.23;1.67;;;16.40;81.50;;;;;;5016475;28;20466;-55
2023/09/13 04:23:06;;;;;;;5.20;2.08;;;16.40;80.90;;;;;;5016219;28;20034;-53
2023/09/13 04:25:36;;;;;;;6.35;1.95;;;16.30;80.20;;;;;;5033597;28;20045;-56
2023/09/13 04:28:02;;;;;;;;;;;16.30;79.70;;;;;;5034112;28;20026;-55
2023/09/13 04:30:29;;;;;;;6.00;2.08;;;16.40;79.90;;;;;;5033189;28;19996;-53
2023/09/13 04:32:57;;;;;;;7.07;2.30;;;16.30;79.60;;;;;;5015512;28;20485;-55
2023/09/13 04:35:23;;;;;;;10.93;2.40;;;16.40;79.80;;;;;;5031489;28;20025;-55
2023/09/13 04:37:53;;;;;;;10.07;2.55;;;16.40;80.20;;;;;;5033257;28;20064;-56
2023/09/13 04:40:19;;;;;;;;;;;16.40;80.10;;;;;;5033581;28;20025;-56
2023/09/13 04:43:16;;;;;;;10.48;2.97;;;16.40;80.10;;;;;;5033399;28;19916;-53
2023/09/13 04:45:47;;;;;;;8.90;2.78;;;16.40;80.50;;;;;;5033085;28;20690;-56
2023/09/13 04:48:14;;;;;;;10.10;2.42;;;16.40;79.70;;;;;;5033140;28;20017;-54
2023/09/13 04:50:42;;;;;;;11.05;3.20;;;16.40;81.50;;;;;;5033176;28;20080;-55
2023/09/13 04:53:09;;;;;;;8.45;2.60;;;16.40;81.60;;;;;;5032820;28;20033;-54
2023/09/13 04:55:35;;;;;;;9.10;3.10;;;16.20;81.00;;;;;;5014846;28;20413;-54
2023/09/13 04:58:04;;;;;;;9.27;3.00;;;16.20;80.40;;;;;;5032944;28;20623;-54
2023/09/13 05:00:31;;;;;;;8.55;2.63;;;16.10;80.20;;;;;;5015701;28;20021;-54
2023/09/13 05:02:58;;;;;;;8.85;2.33;;;16.00;80.10;;;;;;5015215;28;20343;-54
2023/09/13 05:05:25;;;;;;;6.53;2.15;;;16.00;79.80;;;;;;5031642;28;20574;-55
2023/09/13 05:07:53;;;;;;;10.88;2.17;;;16.00;77.00;;;;;;5032695;28;20055;-56
2023/09/13 05:10:20;;;;;;;8.93;2.67;;;16.00;76.60;;;;;;5033046;28;20017;-54
2023/09/13 05:12:48;;;;;;;9.13;2.03;;;16.10;76.90;;;;;;5015133;28;20423;-52
2023/09/13 05:15:15;;;;;;;8.75;2.53;;;16.10;75.70;;;;;;4998538;28;20425;-52
2023/09/13 05:17:43;;;;;;;7.28;2.47;;;16.20;75.80;;;;;;5032301;28;20057;-54
2023/09/13 05:20:09;;;;;;;7.70;2.40;;;16.20;75.70;;;;;;5031875;28;20104;-54
2023/09/13 05:22:36;;;;;;;13.70;3.42;;;16.20;76.30;;;;;;5032262;28;20079;-52
2023/09/13 05:25:03;;;;;;;8.73;2.80;;;16.30;76.20;;;;;;5032195;28;20036;-52
2023/09/13 05:27:29;;;;;;;8.68;2.28;;;16.30;75.30;;;;;;5032148;28;20708;-54
2023/09/13 05:29:56;;;;;;;8.63;2.05;;;16.30;74.80;;;;;;5032282;28;20037;-56
2023/09/13 05:32:23;;;;;;;8.52;2.65;;;16.30;73.00;;;;;;5014662;28;20108;-53
2023/09/13 05:34:50;;;;;;;6.32;1.92;;;16.30;72.90;;;;;;5014854;28;20033;-58
2023/09/13 05:37:17;;;;;;;15.00;2.67;;;16.40;74.90;;;;;;5031844;28;20037;-54
2023/09/13 05:39:42;;;;;;;8.60;2.65;;;16.40;75.60;;;;;;5038506;28;20104;-56
2023/09/13 05:42:09;;;;;;;5.85;1.92;;;16.40;75.90;;;;;;5034352;28;20104;-56
2023/09/13 05:44:36;;;;;;;10.35;2.78;;;16.40;76.60;;;;;;5052089;28;20032;-55
2023/09/13 05:47:06;;;;;;;8.63;2.75;;;16.40;76.30;;;;;;5052107;28;20451;-54
2023/09/13 05:49:32;;;;;;;12.20;3.55;;;16.40;76.80;;;;;;5039950;28;20623;-55
2023/09/13 05:52:00;;;;;;;15.85;2.60;;;16.40;75.90;;;;;;5034005;28;20028;-56
2023/09/13 05:54:27;;;;;;;8.18;2.65;;;16.50;76.20;;;;;;5032177;28;20042;-58
2023/09/13 05:56:56;;;;;;;11.88;2.50;;;16.40;76.80;;;;;;5028163;28;20026;-56
2023/09/13 05:59:23;;;;;;;7.25;2.33;;;16.40;75.50;;;;;;5011845;28;20025;-56
2023/09/13 06:01:51;;;;;;;17.05;2.78;;;16.50;75.80;;;;;;5012179;28;20026;-54
2023/09/13 06:04:17;;;;;;;13.93;3.15;;;16.50;76.70;;;;;;5025680;28;20025;-54
2023/09/13 06:06:44;;;;;;;7.82;2.78;;;16.60;76.50;;;;;;5032029;28;20068;-57
2023/09/13 06:09:13;;;;;;;9.38;2.33;;;16.60;75.80;;;;;;5013706;28;20036;-55
2023/09/13 06:11:41;;;;;;;10.45;2.85;;;16.60;76.30;;;;;;5030107;28;20057;-56
2023/09/13 06:14:07;;;;;;;8.25;2.78;;;16.60;77.00;;;;;;5011474;28;20649;-54
2023/09/13 06:16:34;;;;;;;10.55;2.40;;;16.60;76.70;;;;;;5011139;28;20107;-54
2023/09/13 06:19:03;;;;;;;8.65;2.30;;;16.60;77.30;;;;;;5012198;28;20420;-55
2023/09/13 06:21:29;;;;;;;13.82;2.38;;;16.60;76.80;;;;;;5012592;28;20414;-55
2023/09/13 06:23:58;;;;;;;10.63;2.30;;;16.60;76.90;;;;;;5019404;28;20041;-55
2023/09/13 06:26:25;;;;;;;7.88;2.45;;;16.60;76.90;;;;;;5031526;28;20442;-54
2023/09/13 06:28:52;;;;;;;12.63;2.97;;;16.70;77.50;;;;;;5031571;28;20029;-55
2023/09/13 06:31:19;;;;;;;9.98;2.42;;;16.70;77.80;;;;;;5025137;28;20089;-57
2023/09/13 06:33:46;;;;;;;6.40;2.35;;;16.60;77.70;;;;;;5011319;28;20045;-52
2023/09/13 06:36:15;;;;;;;11.32;2.83;;;16.60;77.70;;;;;;5014285;28;20043;-57
2023/09/13 06:38:41;;;;;;;10.75;2.20;;;16.60;78.20;;;;;;5031290;28;20025;-51
2023/09/13 06:41:08;;;;;;;8.80;2.10;;;16.60;77.90;;;;;;5030918;28;20505;-56
2023/09/13 06:43:36;;;;;;;12.70;2.38;;;16.70;78.20;;;;;;5013750;28;20025;-56
2023/09/13 06:46:04;;;;;;;12.10;2.50;;;16.70;78.30;;;;;;5026422;28;20022;-51
2023/09/13 06:48:31;;;;;;;11.77;2.75;;;16.70;78.50;;;;;;5011421;28;20109;-56
2023/09/13 06:50:56;;;;;;;13.95;2.60;;;16.70;78.90;;;;;;5011185;28;20037;-55
2023/09/13 06:53:27;;;;;;;12.52;2.58;;;16.80;79.30;;;;;;5012081;28;20057;-56
2023/09/13 06:55:52;;;;;;;10.30;2.33;;;16.80;79.10;;;;;;5030870;28;20025;-54
2023/09/13 06:58:19;;;;;;;9.65;2.15;;;16.80;78.90;;;;;;5030761;28;20049;-52
2023/09/13 07:00:46;;;;;;;10.30;2.80;;;16.70;79.90;;;;;;5013355;28;20033;-54
2023/09/13 07:03:13;;;;;;;10.60;3.47;;;16.70;79.80;;;;;;5019352;28;20485;-50
2023/09/13 07:05:39;;;;;;;10.98;2.75;;;16.70;79.60;;;;;;5011157;28;20451;-54
2023/09/13 07:08:06;;;;;;;10.75;3.00;;;16.80;80.30;;;;;;4993418;28;20513;-53
2023/09/13 07:10:33;;;;;;;12.32;2.70;;;16.80;80.20;;;;;;5011140;28;20080;-53
2023/09/13 07:13:04;;;;;;;10.48;1.90;;;16.80;80.20;;;;;;5010842;28;20030;-54
2023/09/13 07:15:30;;;;;;;7.72;1.60;;;16.80;79.30;;;;;;5010889;28;20081;-56
2023/09/13 07:17:57;;;;;;;10.73;3.22;;;16.80;79.40;;;;;;5011032;28;20367;-53
2023/09/13 07:20:24;;;;;;;7.65;2.10;;;16.80;80.30;;;;;;5010985;28;20517;-56
2023/09/13 07:22:53;;;;;;;10.15;2.10;;;16.60;80.60;;;;;;5010727;28;20041;-53
2023/09/13 07:25:20;;;;;;;9.43;2.67;;;16.60;80.80;;;;;;5010585;28;20033;-51
2023/09/13 07:27:47;;;;;;;7.18;2.83;;;16.50;81.90;;;;;;5012406;28;20034;-46
2023/09/13 07:30:16;;;;;;;11.05;3.20;;;16.20;82.90;;;;;;5014905;28;20037;-49
2023/09/13 07:32:43;;;;;;;9.90;2.75;;;16.00;82.90;;;;;;5014723;28;20447;-45
2023/09/13 07:35:10;;;;;;;12.95;3.17;;;15.90;82.30;;;;;;5014570;28;20084;-44
2023/09/13 07:37:40;;;;;;;6.38;2.97;;;15.80;81.40;;;;;;5014958;28;20092;-45
2023/09/13 07:40:07;;;;;;;8.82;3.33;;;15.80;81.60;;;;;;5014851;28;20462;-45
2023/09/13 07:42:34;;;;;;;15.43;3.65;;;15.90;82.80;;;;;;5015089;28;20041;-45
2023/09/13 07:45:00;;;;;;;7.05;2.47;;;15.90;83.40;;;;;;5014381;28;20095;-44
2023/09/13 07:47:28;;;;;;;9.93;3.08;;;16.00;83.30;;;;;;5014383;28;20030;-45
2023/09/13 07:50:00;;;;;;;9.10;2.38;;;16.00;82.60;;;;;;5014734;28;20060;-45
2023/09/13 07:52:26;;;;;;;8.27;2.20;;;16.00;83.00;;;;;;5018393;28;20057;-44
2023/09/13 07:54:53;;;;;;;10.70;2.92;;;16.00;83.60;;;;;;5034320;28;20044;-44
2023/09/13 07:57:20;;;;;;;9.65;2.72;;;16.00;83.80;;;;;;5034230;28;20083;-45
2023/09/13 07:59:48;;;;;;;9.50;2.58;;;15.90;83.80;;;;;;5042934;28;20033;-46
2023/09/13 08:02:23;;;;;;;11.75;1.90;;;15.90;84.20;;;;;;5053825;28;20029;-47
2023/09/13 08:04:50;;;;;;;14.23;2.72;;;15.90;84.60;;;;;;5053735;28;20025;-45
2023/09/13 08:07:19;;;;;;;11.73;3.60;;;16.00;84.40;;;;;;5053297;28;20026;-44
2023/09/13 08:09:44;;;;;;;9.45;2.30;;;15.90;83.70;;;;;;5053911;28;20569;-47
2023/09/13 08:12:11;;;;;;;13.05;2.55;;;16.00;84.40;;;;;;5053892;28;20108;-45
2023/09/13 08:14:39;;;;;;;12.23;2.25;;;16.00;84.30;;;;;;5051345;28;20028;-48
2023/09/13 08:17:04;;;;;;;10.52;3.35;;;15.90;85.00;;;;;;5033734;28;20026;-49
2023/09/13 08:19:31;;;;;;;9.80;2.28;;;15.90;86.20;;;;;;5033878;28;20032;-46
2023/09/13 08:21:57;;;;;;;12.93;2.55;;;15.80;86.90;;;;;;5033778;28;20029;-48
2023/09/13 08:24:26;;;;;;;11.18;2.17;;;15.70;87.00;;;;;;5033263;28;20033;-50
2023/09/13 08:26:53;;;;;;;10.93;2.83;;;15.60;87.20;;;;;;5033974;28;20034;-52
2023/09/13 08:29:20;;;;;;;10.32;2.55;;;15.60;87.90;;;;;;5048879;28;20025;-50
2023/09/13 08:31:46;;;;;;;16.23;3.40;;;15.60;88.70;;;;;;5053317;28;20025;-47
2023/09/13 08:34:13;;;;;;;18.48;3.15;;;15.60;89.10;;;;;;5053261;28;20427;-48
2023/09/13 08:36:40;;;;;;;8.27;2.95;;;15.50;89.10;;;;;;5053328;28;20029;-49
2023/09/13 08:39:07;;;;;;;12.60;2.97;;;15.40;88.80;;;;;;5035259;28;20052;-48
2023/09/13 08:41:36;;;;;;;13.68;3.22;;;15.40;89.10;;;;;;5039081;28;20039;-48
2023/09/13 08:44:16;;;;;;;14.77;2.72;;;15.50;89.20;;;;;;5053287;28;20092;-47
2023/09/13 08:46:47;;;;;;;12.75;2.45;;;15.50;89.40;;;;;;5053197;28;20032;-47
2023/09/13 08:49:17;;;;;;;14.18;3.10;;;15.60;89.90;;;;;;5053266;28;20068;-48
2023/09/13 08:51:49;;;;;;;7.35;2.65;;;15.60;89.80;;;;;;5038624;28;20049;-48
2023/09/13 08:54:17;;;;;;;12.27;3.15;;;15.60;89.70;;;;;;5014236;28;20037;-48
2023/09/13 08:56:45;;;;;;;6.45;2.03;;;15.60;88.90;;;;;;5013372;28;20110;-50
2023/09/13 08:59:19;;;;;;;8.70;2.40;;;15.70;88.70;;;;;;5013254;28;20137;-49
2023/09/13 09:01:48;;;;;;;11.60;2.70;;;15.80;88.90;;;;;;5013397;28;20022;-47
2023/09/13 09:04:20;;;;;;;7.80;2.03;;;15.90;89.20;;;;;;5013646;28;20096;-48
2023/09/13 09:06:47;;;;;;;13.45;2.95;;;16.00;89.40;;;;;;5033299;28;20029;-49
2023/09/13 09:09:19;;;;;;;12.77;2.72;;;16.20;89.50;;;;;;5032834;28;20518;-46
2023/09/13 09:11:51;;;;;;;13.80;2.30;;;16.40;89.40;;;;;;5032730;28;20374;-45
2023/09/13 09:14:23;;;;;;;12.52;3.83;;;16.40;88.60;;;;;;5004392;28;20053;-45
2023/09/13 09:16:54;;;;;;;11.40;2.83;;;16.40;88.60;;;;;;5012802;28;20656;-45
2023/09/13 09:19:21;;;;;;;10.55;2.72;;;16.40;87.90;;;;;;5012748;28;20034;-44
2023/09/13 09:21:48;;;;;;;6.95;2.17;;;16.40;87.40;;;;;;5001407;28;20051;-44
2023/09/13 09:24:14;;;;;;;13.38;2.28;;;16.40;86.80;;;;;;5031546;28;20034;-45
2023/09/13 09:26:41;;;;;;;8.02;2.45;;;16.40;86.30;;;;;;5029962;28;20029;-45
2023/09/13 09:29:11;;;;;;;14.93;3.53;;;16.50;85.60;;;;;;5012696;28;20372;-47
2023/09/13 09:31:39;;;;;;;7.70;2.83;;;16.40;84.60;;;;;;5023655;28;20105;-46
2023/09/13 09:34:06;;;;;;;9.65;2.90;;;16.40;83.80;;;;;;5032337;28;20455;-46
2023/09/13 09:36:44;;;;;;;9.68;2.38;;;16.40;84.50;;;;;;4995955;28;20026;-46
2023/09/13 09:39:15;;;;;;;11.63;2.70;;;16.40;84.50;;;;;;5012556;28;20033;-48
2023/09/13 09:41:41;;;;;;;5.60;1.83;;;16.40;84.30;;;;;;5012480;28;20084;-48
2023/09/13 09:44:10;;;;;;;13.32;2.92;;;16.30;84.60;;;;;;5012201;28;20040;-47
2023/09/13 09:46:38;;;;;;;11.10;3.13;;;16.30;84.70;;;;;;5012321;28;20026;-51
2023/09/13 09:49:05;;;;;;;10.70;2.50;;;16.40;85.60;;;;;;5012413;28;20471;-51
2023/09/13 09:51:32;;;;;;;10.30;2.17;;;16.40;84.90;;;;;;5011615;28;20033;-47
2023/09/13 09:54:00;;;;;;;6.90;2.00;;;16.40;83.70;;;;;;5028497;28;20049;-49
2023/09/13 09:56:26;;;;;;;8.40;1.77;;;16.50;84.00;;;;;;5014525;28;20631;-48
2023/09/13 09:58:52;;;;;;;11.65;2.80;;;16.40;83.70;;;;;;5032198;28;20026;-52
2023/09/13 10:01:19;;;;;;;15.27;4.03;;;16.40;84.30;;;;;;5031949;28;20083;-51
2023/09/13 10:03:46;;;;;;;11.18;2.30;;;16.30;85.00;;;;;;5014577;28;20021;-53
2023/09/13 10:06:15;;;;;;;9.13;2.35;;;16.20;85.40;;;;;;5031852;28;20517;-49
2023/09/13 10:09:02;;;;;;;5.25;1.85;;;16.10;85.90;;;;;;5031851;28;20025;-47
2023/09/13 10:11:29;;;;;;;8.55;2.17;;;16.10;86.60;;;;;;5031532;28;20623;-50
2023/09/13 10:13:55;;;;;;;11.82;2.38;;;16.00;86.00;;;;;;5014118;28;20029;-48
2023/09/13 10:16:30;;;;;;;5.43;2.20;;;16.00;85.30;;;;;;5014121;28;20025;-47
2023/09/13 10:19:06;;;;;;;13.52;2.83;;;16.00;85.20;;;;;;5031536;28;20021;-48
2023/09/13 10:21:34;;;;;;;7.45;2.22;;;16.00;84.80;;;;;;5031701;28;20104;-45
2023/09/13 10:24:07;;;;;;;11.80;2.53;;;15.90;85.00;;;;;;5031567;28;20037;-45
2023/09/13 10:26:35;;;;;;;10.82;3.28;;;15.90;85.50;;;;;;5049683;28;20090;-46
2023/09/13 10:29:39;;;;;;;9.38;3.17;;;15.90;85.90;;;;;;5051422;28;20879;-49
2023/09/13 10:32:13;;;;;;;9.93;2.60;;;16.00;86.40;;;;;;5005056;28;20122;-45
2023/09/13 10:34:53;;;;;;;14.75;3.30;;;15.90;86.20;;;;;;5031284;28;20040;-46
2023/09/13 10:37:41;;;;;;;10.15;3.60;;;15.90;87.20;;;;;;5006343;28;20025;-47
2023/09/13 10:40:22;;;;;;;5.85;2.28;;;15.80;87.40;;;;;;5031590;28;20021;-48
2023/09/13 10:42:51;;;;;;;8.75;2.28;;;15.80;87.60;;;;;;5031405;28;20755;-44
2023/09/13 10:45:19;;;;;;;;;;;15.60;87.30;;;;;;5031598;28;20101;-44
2023/09/13 10:47:51;;;;;;;7.90;2.83;;;15.60;87.60;;;;;;5031102;28;19909;-45
2023/09/13 10:50:21;;;;;;;9.95;2.25;;;15.60;86.80;;;;;;5031023;28;20714;-47
2023/09/13 10:52:49;;;;;;;14.48;3.20;;;15.50;86.60;;;;;;5037280;28;20051;-48
2023/09/13 10:55:18;;;;;;;9.93;2.95;;;15.60;86.20;;;;;;5050731;28;20438;-46
2023/09/13 10:57:48;;;;;;;9.88;2.13;;;15.60;86.40;;;;;;5050902;28;20032;-45
2023/09/13 11:00:16;;;;;;;14.85;3.25;;;15.70;86.40;;;;;;5053550;28;20033;-44
2023/09/13 11:02:44;;;;;;;8.82;2.92;;;15.70;85.90;;;;;;5070727;28;20350;-45
2023/09/13 11:05:12;;;;;;;8.20;2.28;;;15.70;84.90;;;;;;5070755;28;20024;-46
2023/09/13 11:07:48;;;;;;;7.55;1.98;;;15.80;83.60;;;;;;5070712;28;20120;-46
2023/09/13 11:10:16;;;;;;;9.30;2.72;;;15.80;82.90;;;;;;5069186;28;20028;-43
2023/09/13 11:12:48;;;;;;;9.13;2.55;;;15.80;82.40;;;;;;5070774;28;20052;-46
2023/09/13 11:15:28;;;;;;;9.10;3.22;;;15.70;81.90;;;;;;5061067;28;20033;-47
2023/09/13 11:17:56;;;;;;;14.88;2.92;;;15.80;82.00;;;;;;5049702;28;20164;-47
2023/09/13 11:20:28;;;;;;;7.57;2.35;;;15.80;82.00;;;;;;5068120;28;20033;-51
2023/09/13 11:23:12;;;;;;;7.55;2.38;;;15.90;80.70;;;;;;5070956;28;20012;-48
2023/09/13 11:25:47;;;;;;;6.32;1.65;;;15.90;79.80;;;;;;5070956;28;20025;-51
2023/09/13 11:28:43;;;;;;;9.35;2.28;;;16.00;77.80;;;;;;5044369;28;20052;-46
2023/09/13 11:31:14;;;;;;;11.23;3.40;;;16.20;76.60;;;;;;5050816;28;20025;-55
2023/09/13 11:34:03;;;;;;;4.75;2.17;;;16.40;76.60;;;;;;5050491;28;20049;-48
2023/09/13 11:36:31;;;;;;;7.38;2.35;;;16.60;76.60;;;;;;5050809;28;20185;-50
2023/09/13 11:39:01;;;;;;;15.43;3.40;;;16.90;75.40;;;;;;5032914;28;20493;-53
2023/09/13 11:41:39;;;;;;;7.80;2.58;;;17.00;73.90;;;;;;5058773;28;20021;-49
2023/09/13 11:44:09;;;;;;;6.50;2.40;;;17.20;74.70;;;;;;5070678;28;20024;-55
2023/09/13 11:46:40;;;;;;;8.75;2.58;;;17.30;73.80;;;;;;5070623;28;20016;-55
2023/09/13 11:49:07;;;;;;;10.30;2.35;;;17.50;73.00;;;;;;5038836;28;20063;-52
2023/09/13 11:51:34;;;;;;;7.10;2.20;;;17.90;74.20;;;;;;5032768;28;21148;-56
2023/09/13 11:54:15;;;;;;;7.25;2.60;;;18.20;73.40;;;;;;5029243;28;20087;-51
2023/09/13 11:56:45;;;;;;;8.30;2.70;;;18.40;71.90;;;;;;5030574;28;20485;-55
2023/09/13 11:59:17;;;;;;;8.73;2.33;;;18.60;70.10;;;;;;5030529;28;20075;-52
2023/09/13 12:01:47;;;;;;;8.02;2.30;;;18.50;69.50;;;;;;5030370;28;20347;-51
2023/09/13 12:04:14;;;;;;;9.15;3.03;;;18.40;71.30;;;;;;5050049;28;20033;-55
2023/09/13 12:06:59;;;;;;;11.30;1.83;;;18.50;72.10;;;;;;5050366;28;20090;-54
2023/09/13 12:09:25;;;;;;;10.00;2.08;;;18.60;71.90;;;;;;5049491;28;20619;-53
2023/09/13 12:11:54;;;;;;;11.65;2.70;;;18.70;71.40;;;;;;5030401;28;20037;-54
2023/09/13 12:14:25;;;;;;;9.00;2.22;;;18.70;70.80;;;;;;5032495;28;20095;-54
2023/09/13 12:16:51;;;;;;;9.98;2.75;;;18.90;70.90;;;;;;5034201;28;20018;-53
2023/09/13 12:19:20;;;;;;;5.60;1.63;;;18.90;70.00;;;;;;5034085;28;20009;-48
2023/09/13 12:21:47;;;;;;;10.73;3.20;;;19.00;71.10;;;;;;5034078;28;20022;-52
2023/09/13 12:24:21;;;;;;;7.80;2.40;;;19.10;70.90;;;;;;5034180;28;20445;-51
2023/09/13 12:26:53;;;;;;;9.13;2.45;;;19.00;68.00;;;;;;5033802;28;20030;-51
2023/09/13 12:29:24;;;;;;;11.10;2.25;;;19.10;70.20;;;;;;5033187;28;20083;-54
2023/09/13 12:31:55;;;;;;;10.20;2.05;;;19.20;70.80;;;;;;5033475;28;20033;-52
2023/09/13 12:34:23;;;;;;;8.55;2.10;;;19.40;68.90;;;;;;5033738;28;20021;-52
2023/09/13 12:36:50;;;;;;;5.20;1.92;;;19.20;65.60;;;;;;5033538;28;20087;-53
2023/09/13 12:39:17;;;;;;;8.40;2.42;;;19.00;65.00;;;;;;5033550;28;20024;-57
2023/09/13 12:41:46;;;;;;;5.28;1.98;;;18.90;65.10;;;;;;5033773;28;20397;-56
2023/09/13 12:44:14;;;;;;;11.25;2.20;;;18.90;65.70;;;;;;5033746;28;20029;-54
2023/09/13 12:46:42;;;;;;;5.80;2.13;;;18.90;65.80;;;;;;5033565;28;20048;-54
2023/09/13 12:49:13;;;;;;;10.80;2.45;;;18.90;65.10;;;;;;5033094;28;20028;-56
2023/09/13 12:51:40;;;;;;;8.02;2.60;;;18.90;65.40;;;;;;5033279;28;20029;-57